createdAt,value
2017-11-16T00:01:26.694Z,7.76
2017-11-16T00:02:53.921Z,7.79
2017-11-16T00:04:20.312Z,7.81
2017-11-16T00:05:47.708Z,7.85
2017-11-16T00:07:15.076Z,7.87
2017-11-16T00:08:42.287Z,7.86
2017-11-16T00:10:09.622Z,7.84
2017-11-16T00:11:37.930Z,7.86
2017-11-16T00:13:04.299Z,7.85
2017-11-16T00:14:31.568Z,7.87
2017-11-16T00:15:58.940Z,7.88
2017-11-16T00:17:27.184Z,7.90
2017-11-16T00:18:53.178Z,7.91
2017-11-16T00:20:20.534Z,7.92
2017-11-16T00:21:47.949Z,7.92
2017-11-16T00:23:15.547Z,7.92
2017-11-16T00:24:42.823Z,7.90
2017-11-16T00:26:11.126Z,7.90
2017-11-16T00:27:37.385Z,7.92
2017-11-16T00:29:04.586Z,7.93
2017-11-16T00:30:31.814Z,7.93
2017-11-16T00:31:59.149Z,7.94
2017-11-16T00:33:26.335Z,7.93
2017-11-16T00:34:53.516Z,7.94
2017-11-16T00:36:20.896Z,7.95
2017-11-16T00:37:49.447Z,7.96
2017-11-16T00:39:15.601Z,7.91
2017-11-16T00:40:43.903Z,7.91
2017-11-16T00:42:10.270Z,7.92
2017-11-16T00:43:37.485Z,7.94
2017-11-16T00:45:04.852Z,7.93
2017-11-16T00:46:32.194Z,7.85
2017-11-16T00:47:59.539Z,7.84
2017-11-16T00:49:26.907Z,7.85
2017-11-16T00:50:54.152Z,7.86
2017-11-16T00:52:21.337Z,7.89
2017-11-16T00:53:48.627Z,7.93
2017-11-16T00:55:15.918Z,7.96
2017-11-16T00:56:44.338Z,7.98
2017-11-16T00:58:10.511Z,7.99
2017-11-16T00:59:37.791Z,8.02
2017-11-16T01:01:05.031Z,8.04
2017-11-16T01:02:33.375Z,8.04
2017-11-16T01:03:59.771Z,8.03
2017-11-16T01:05:27.973Z,8.05
2017-11-16T01:06:54.238Z,8.06
2017-11-16T01:08:21.565Z,8.07
2017-11-16T01:09:48.906Z,8.07
2017-11-16T01:11:16.892Z,8.04
2017-11-16T01:12:43.308Z,8.06
2017-11-16T01:14:10.604Z,8.07
2017-11-16T01:15:37.877Z,8.09
2017-11-16T01:17:05.245Z,8.11
2017-11-16T01:18:32.763Z,8.13
2017-11-16T01:20:00.046Z,8.13
2017-11-16T01:21:27.178Z,8.14
2017-11-16T01:22:55.389Z,8.09
2017-11-16T01:24:22.930Z,7.96
2017-11-16T01:25:49.241Z,7.97
2017-11-16T01:27:16.629Z,7.98
2017-11-16T01:28:44.015Z,7.98
2017-11-16T01:30:12.253Z,8.01
2017-11-16T01:31:38.650Z,8.03
2017-11-16T01:33:05.889Z,8.05
2017-11-16T01:34:33.310Z,8.02
2017-11-16T01:36:00.496Z,8.02
2017-11-16T01:37:27.775Z,8.02
2017-11-16T01:38:56.175Z,8.03
2017-11-16T01:40:22.572Z,8.03
2017-11-16T01:41:49.912Z,8.03
2017-11-16T01:43:17.244Z,8.01
2017-11-16T01:44:44.430Z,8.00
2017-11-16T01:46:11.750Z,8.02
2017-11-16T01:47:39.056Z,8.03
2017-11-16T01:49:06.521Z,8.04
2017-11-16T01:50:33.816Z,8.06
2017-11-16T01:52:01.136Z,8.08
2017-11-16T01:53:28.537Z,8.10
2017-11-16T01:54:55.883Z,8.11
2017-11-16T01:56:23.241Z,8.12
2017-11-16T01:57:50.776Z,8.12
2017-11-16T01:59:19.225Z,8.13
2017-11-16T02:00:45.470Z,8.12
2017-11-16T02:02:12.857Z,8.13
2017-11-16T02:03:40.201Z,8.12
2017-11-16T02:05:08.458Z,8.11
2017-11-16T02:06:34.573Z,8.10
2017-11-16T02:08:02.940Z,8.11
2017-11-16T02:09:34.005Z,8.12
2017-11-16T02:10:56.328Z,8.13
2017-11-16T02:12:24.514Z,8.13
2017-11-16T02:13:50.918Z,8.11
2017-11-16T02:15:19.271Z,8.10
2017-11-16T02:16:45.302Z,8.11
2017-11-16T02:18:12.491Z,8.10
2017-11-16T02:19:39.731Z,8.10
2017-11-16T02:21:07.139Z,8.09
2017-11-16T02:22:34.328Z,8.09
2017-11-16T02:24:01.443Z,8.09
2017-11-16T02:25:28.814Z,8.07
2017-11-16T02:26:56.210Z,8.07
2017-11-16T02:28:23.217Z,8.04
2017-11-16T02:29:50.655Z,8.03
2017-11-16T02:31:18.016Z,8.02
2017-11-16T02:32:45.300Z,8.02
2017-11-16T02:34:12.720Z,8.03
2017-11-16T02:35:40.229Z,8.00
2017-11-16T02:37:07.400Z,7.99
2017-11-16T02:38:34.734Z,7.98
2017-11-16T02:40:02.045Z,7.97
2017-11-16T02:41:30.335Z,7.96
2017-11-16T02:42:56.560Z,7.95
2017-11-16T02:44:24.880Z,7.94
2017-11-16T02:45:51.257Z,7.93
2017-11-16T02:47:18.644Z,7.92
2017-11-16T02:48:46.038Z,7.91
2017-11-16T02:50:13.383Z,7.91
2017-11-16T02:51:40.682Z,7.92
2017-11-16T02:53:08.178Z,7.93
2017-11-16T02:54:36.235Z,7.93
2017-11-16T02:56:03.432Z,7.93
2017-11-16T02:57:30.623Z,7.91
2017-11-16T02:58:56.836Z,7.89
2017-11-16T03:00:24.039Z,7.89
2017-11-16T03:01:52.321Z,7.88
2017-11-16T03:03:18.780Z,7.88
2017-11-16T03:04:46.138Z,7.87
2017-11-16T03:06:13.454Z,7.82
2017-11-16T03:07:41.742Z,7.80
2017-11-16T03:09:08.119Z,7.78
2017-11-16T03:10:35.431Z,7.76
2017-11-16T03:12:02.797Z,7.74
2017-11-16T03:13:30.054Z,7.74
2017-11-16T03:14:58.385Z,7.76
2017-11-16T03:16:24.580Z,7.77
2017-11-16T03:17:51.926Z,7.79
2017-11-16T03:19:19.185Z,7.81
2017-11-16T03:20:46.422Z,7.82
2017-11-16T03:22:13.809Z,7.84
2017-11-16T03:23:47.289Z,7.83
2017-11-16T03:25:09.595Z,7.83
2017-11-16T03:26:35.882Z,7.82
2017-11-16T03:28:03.098Z,7.82
2017-11-16T03:29:30.429Z,7.82
2017-11-16T03:30:58.844Z,7.82
2017-11-16T03:32:25.145Z,7.82
2017-11-16T03:33:52.569Z,7.84
2017-11-16T03:35:20.864Z,7.85
2017-11-16T03:36:47.318Z,7.87
2017-11-16T03:38:14.663Z,7.88
2017-11-16T03:39:41.954Z,7.88
2017-11-16T03:41:09.125Z,7.88
2017-11-16T03:42:36.474Z,7.88
2017-11-16T03:44:03.621Z,7.90
2017-11-16T03:45:32.021Z,7.92
2017-11-16T03:46:59.315Z,7.92
2017-11-16T03:48:25.605Z,7.91
2017-11-16T03:49:52.903Z,7.90
2017-11-16T03:51:20.255Z,7.90
2017-11-16T03:52:47.591Z,7.87
2017-11-16T03:54:14.725Z,7.87
2017-11-16T03:55:42.093Z,7.88
2017-11-16T03:57:09.446Z,7.88
2017-11-16T03:58:37.791Z,7.88
2017-11-16T04:00:05.135Z,7.88
2017-11-16T04:01:31.420Z,7.89
2017-11-16T04:02:59.641Z,7.88
2017-11-16T04:04:26.891Z,7.87
2017-11-16T04:05:53.381Z,7.87
2017-11-16T04:07:20.536Z,7.87
2017-11-16T04:08:49.020Z,7.85
2017-11-16T04:10:16.324Z,7.85
2017-11-16T04:11:43.636Z,7.86
2017-11-16T04:13:09.938Z,7.86
2017-11-16T04:14:38.259Z,7.82
2017-11-16T04:16:05.779Z,7.83
2017-11-16T04:17:31.941Z,7.83
2017-11-16T04:18:59.260Z,7.77
2017-11-16T04:20:26.424Z,7.76
2017-11-16T04:21:53.282Z,7.75
2017-11-16T04:23:20.690Z,7.76
2017-11-16T04:24:48.144Z,7.76
2017-11-16T04:26:15.515Z,7.74
2017-11-16T04:27:43.746Z,7.72
2017-11-16T04:29:11.203Z,7.66
2017-11-16T04:30:38.680Z,7.60
2017-11-16T04:32:04.849Z,7.53
2017-11-16T04:33:32.205Z,7.52
2017-11-16T04:34:59.259Z,7.55
2017-11-16T04:36:26.548Z,7.60
2017-11-16T04:37:53.705Z,7.57
2017-11-16T04:39:21.074Z,7.59
2017-11-16T04:40:48.333Z,7.62
2017-11-16T04:42:15.678Z,7.63
2017-11-16T04:43:42.887Z,7.56
2017-11-16T04:45:10.196Z,7.51
2017-11-16T04:46:37.650Z,7.50
2017-11-16T04:48:05.023Z,7.45
2017-11-16T04:49:32.170Z,7.43
2017-11-16T04:51:00.519Z,7.43
2017-11-16T04:52:27.791Z,7.43
2017-11-16T04:53:53.919Z,7.40
2017-11-16T04:55:21.090Z,7.39
2017-11-16T04:56:48.275Z,7.38
2017-11-16T04:58:16.554Z,7.34
2017-11-16T04:59:42.869Z,7.32
2017-11-16T05:01:11.379Z,7.32
2017-11-16T05:02:37.435Z,7.37
2017-11-16T05:04:04.709Z,7.41
2017-11-16T05:05:33.072Z,7.41
2017-11-16T05:06:59.279Z,7.41
2017-11-16T05:08:27.548Z,7.38
2017-11-16T05:09:54.853Z,7.39
2017-11-16T05:11:22.195Z,7.40
2017-11-16T05:12:48.420Z,7.46
2017-11-16T05:14:15.599Z,7.50
2017-11-16T05:15:42.931Z,7.51
2017-11-16T05:17:10.279Z,7.55
2017-11-16T05:18:37.492Z,7.60
2017-11-16T05:20:04.729Z,7.61
2017-11-16T05:21:32.000Z,7.64
2017-11-16T05:22:59.166Z,7.65
2017-11-16T05:24:26.493Z,7.68
2017-11-16T05:25:53.618Z,7.66
2017-11-16T05:27:20.971Z,7.62
2017-11-16T05:28:48.086Z,7.61
2017-11-16T05:30:15.266Z,7.63
2017-11-16T05:31:43.615Z,7.66
2017-11-16T05:33:10.912Z,7.66
2017-11-16T05:34:37.072Z,7.69
2017-11-16T05:36:04.448Z,7.71
2017-11-16T05:37:31.908Z,7.70
2017-11-16T05:39:00.160Z,7.62
2017-11-16T05:40:26.499Z,7.62
2017-11-16T05:41:53.678Z,7.61
2017-11-16T05:43:21.032Z,7.63
2017-11-16T05:44:49.326Z,7.61
2017-11-16T05:46:16.391Z,7.59
2017-11-16T05:47:42.686Z,7.55
2017-11-16T05:49:11.100Z,7.52
2017-11-16T05:50:37.383Z,7.51
2017-11-16T05:52:05.776Z,7.46
2017-11-16T05:53:32.039Z,7.44
2017-11-16T05:54:59.294Z,7.47
2017-11-16T05:56:26.412Z,7.51
2017-11-16T05:57:53.665Z,7.55
2017-11-16T05:59:20.965Z,7.58
2017-11-16T06:00:48.344Z,7.54
2017-11-16T06:02:15.292Z,7.53
2017-11-16T06:03:42.713Z,7.55
2017-11-16T06:05:10.069Z,7.54
2017-11-16T06:06:37.276Z,7.51
2017-11-16T06:08:05.732Z,7.52
2017-11-16T06:09:31.910Z,7.53
2017-11-16T06:10:59.168Z,7.57
2017-11-16T06:12:26.445Z,7.57
2017-11-16T06:13:54.576Z,7.54
2017-11-16T06:15:21.984Z,7.51
2017-11-16T06:16:48.244Z,7.52
2017-11-16T06:18:15.501Z,7.52
2017-11-16T06:19:43.773Z,7.51
2017-11-16T06:21:10.137Z,7.54
2017-11-16T06:22:37.451Z,7.53
2017-11-16T06:24:05.804Z,7.54
2017-11-16T06:25:32.052Z,7.56
2017-11-16T06:27:00.311Z,7.59
2017-11-16T06:28:26.542Z,7.65
2017-11-16T06:29:54.721Z,7.69
2017-11-16T06:31:21.028Z,7.73
2017-11-16T06:32:48.192Z,7.74
2017-11-16T06:34:16.553Z,7.75
2017-11-16T06:35:42.821Z,7.76
2017-11-16T06:37:11.201Z,7.75
2017-11-16T06:38:37.509Z,7.77
2017-11-16T06:40:04.842Z,7.75
2017-11-16T06:41:32.168Z,7.73
2017-11-16T06:42:59.463Z,7.76
2017-11-16T06:44:26.579Z,7.80
2017-11-16T06:45:53.643Z,7.83
2017-11-16T06:47:21.102Z,7.87
2017-11-16T06:48:48.379Z,7.90
2017-11-16T06:50:15.779Z,7.94
2017-11-16T06:51:43.108Z,7.97
2017-11-16T06:53:11.423Z,8.00
2017-11-16T06:54:37.773Z,8.02
2017-11-16T06:56:06.015Z,8.03
2017-11-16T06:57:32.378Z,8.05
2017-11-16T06:59:00.975Z,8.06
2017-11-16T07:00:27.220Z,8.08
2017-11-16T07:01:54.393Z,8.08
2017-11-16T07:03:21.647Z,8.10
2017-11-16T07:04:48.994Z,8.08
2017-11-16T07:06:17.411Z,8.03
2017-11-16T07:07:43.170Z,7.98
2017-11-16T07:09:10.596Z,7.99
2017-11-16T07:10:37.864Z,8.01
2017-11-16T07:12:05.104Z,8.01
2017-11-16T07:13:32.398Z,8.05
2017-11-16T07:14:59.907Z,8.07
2017-11-16T07:16:28.145Z,8.08
2017-11-16T07:17:54.329Z,8.10
2017-11-16T07:19:21.678Z,8.12
2017-11-16T07:20:49.009Z,8.14
2017-11-16T07:22:16.234Z,8.15
2017-11-16T07:23:43.697Z,8.15
2017-11-16T07:25:11.096Z,8.15
2017-11-16T07:26:38.256Z,8.15
2017-11-16T07:28:06.645Z,8.16
2017-11-16T07:29:32.733Z,8.17
2017-11-16T07:31:00.034Z,8.18
2017-11-16T07:32:27.297Z,8.18
2017-11-16T07:33:55.612Z,8.20
2017-11-16T07:35:21.858Z,8.20
2017-11-16T07:36:50.193Z,8.21
2017-11-16T07:38:16.497Z,8.22
2017-11-16T07:39:43.910Z,8.21
2017-11-16T07:41:11.339Z,8.21
2017-11-16T07:42:38.713Z,8.22
2017-11-16T07:44:06.956Z,8.23
2017-11-16T07:45:33.250Z,8.25
2017-11-16T07:47:00.805Z,8.25
2017-11-16T07:48:28.956Z,8.19
2017-11-16T07:49:55.232Z,8.13
2017-11-16T07:51:22.483Z,8.07
2017-11-16T07:52:50.774Z,8.02
2017-11-16T07:54:16.982Z,7.95
2017-11-16T07:55:44.341Z,7.95
2017-11-16T07:57:12.661Z,7.94
2017-11-16T07:58:39.087Z,7.98
2017-11-16T08:00:07.542Z,8.01
2017-11-16T08:01:33.852Z,8.02
2017-11-16T08:03:01.101Z,8.06
2017-11-16T08:04:28.563Z,8.05
2017-11-16T08:05:55.839Z,8.03
2017-11-16T08:07:23.386Z,8.02
2017-11-16T08:08:50.766Z,8.05
2017-11-16T08:10:19.016Z,8.05
2017-11-16T08:11:45.447Z,8.06
2017-11-16T08:13:13.729Z,8.10
2017-11-16T08:14:40.075Z,8.14
2017-11-16T08:16:07.392Z,8.18
2017-11-16T08:17:34.773Z,8.21
2017-11-16T08:19:01.969Z,8.23
2017-11-16T08:20:29.198Z,8.26
2017-11-16T08:21:56.561Z,8.30
2017-11-16T08:23:23.831Z,8.33
2017-11-16T08:24:51.071Z,8.37
2017-11-16T08:26:19.377Z,8.39
2017-11-16T08:27:45.567Z,8.42
2017-11-16T08:29:12.868Z,8.42
2017-11-16T08:30:40.249Z,8.41
2017-11-16T08:32:07.503Z,8.44
2017-11-16T08:33:35.760Z,8.46
2017-11-16T08:35:01.826Z,8.47
2017-11-16T08:36:30.164Z,8.49
2017-11-16T08:37:56.441Z,8.50
2017-11-16T08:39:23.689Z,8.52
2017-11-16T08:40:50.975Z,8.54
2017-11-16T08:42:19.488Z,8.57
2017-11-16T08:43:45.875Z,8.58
2017-11-16T08:45:13.991Z,8.58
2017-11-16T08:46:40.367Z,8.59
2017-11-16T08:48:07.644Z,8.59
2017-11-16T08:49:34.948Z,8.61
2017-11-16T08:51:02.114Z,8.64
2017-11-16T08:52:30.384Z,8.65
2017-11-16T08:53:56.548Z,8.68
2017-11-16T08:55:23.718Z,8.70
2017-11-16T08:56:52.083Z,8.72
2017-11-16T08:58:19.480Z,8.73
2017-11-16T08:59:45.773Z,8.75
2017-11-16T09:01:12.980Z,8.76
2017-11-16T09:02:40.347Z,8.77
2017-11-16T09:04:07.787Z,8.76
2017-11-16T09:05:35.157Z,8.77
2017-11-16T09:07:03.413Z,8.78
2017-11-16T09:08:30.673Z,8.79
2017-11-16T09:09:58.118Z,8.80
2017-11-16T09:11:24.282Z,8.81
2017-11-16T09:12:51.651Z,8.81
2017-11-16T09:14:20.032Z,8.80
2017-11-16T09:15:46.067Z,8.79
2017-11-16T09:17:14.460Z,8.81
2017-11-16T09:18:41.905Z,8.82
2017-11-16T09:20:08.239Z,8.84
2017-11-16T09:21:35.691Z,8.86
2017-11-16T09:23:03.011Z,8.88
2017-11-16T09:24:30.178Z,8.90
2017-11-16T09:25:58.490Z,8.92
2017-11-16T09:27:25.752Z,8.94
2017-11-16T09:28:52.218Z,8.96
2017-11-16T09:30:20.687Z,8.97
2017-11-16T09:31:46.924Z,8.97
2017-11-16T09:33:14.319Z,8.99
2017-11-16T09:34:41.752Z,9.00
2017-11-16T09:36:10.133Z,9.03
2017-11-16T09:37:37.297Z,9.05
2017-11-16T09:39:03.533Z,9.06
2017-11-16T09:40:30.970Z,9.07
2017-11-16T09:41:58.452Z,9.09
2017-11-16T09:43:26.669Z,9.10
2017-11-16T09:44:52.973Z,9.10
2017-11-16T09:46:20.372Z,9.11
2017-11-16T09:47:48.745Z,9.11
2017-11-16T09:49:15.196Z,9.12
2017-11-16T09:50:42.538Z,9.13
2017-11-16T09:52:09.776Z,9.13
2017-11-16T09:53:37.000Z,9.14
2017-11-16T09:55:05.369Z,9.14
2017-11-16T09:56:31.767Z,9.15
2017-11-16T09:57:59.220Z,9.16
2017-11-16T09:59:26.626Z,9.17
2017-11-16T10:00:53.745Z,9.18
2017-11-16T10:02:21.205Z,9.18
2017-11-16T10:03:48.638Z,9.18
2017-11-16T10:05:15.836Z,9.20
2017-11-16T10:06:44.195Z,9.21
2017-11-16T10:08:10.656Z,9.22
2017-11-16T10:09:38.923Z,9.23
2017-11-16T10:11:05.197Z,9.25
2017-11-16T10:12:33.776Z,9.27
2017-11-16T10:13:59.995Z,9.29
2017-11-16T10:15:27.162Z,9.32
2017-11-16T10:16:54.370Z,9.34
2017-11-16T10:18:21.799Z,9.36
2017-11-16T10:19:49.247Z,9.36
2017-11-16T10:21:17.665Z,9.39
2017-11-16T10:22:43.968Z,9.40
2017-11-16T10:24:12.132Z,9.42
2017-11-16T10:25:38.580Z,9.43
2017-11-16T10:27:05.907Z,9.44
2017-11-16T10:28:34.105Z,9.45
2017-11-16T10:30:00.261Z,9.46
2017-11-16T10:31:28.728Z,9.45
2017-11-16T10:32:55.020Z,9.45
2017-11-16T10:34:22.503Z,9.45
2017-11-16T10:35:49.719Z,9.44
2017-11-16T10:37:18.167Z,9.44
2017-11-16T10:38:45.795Z,9.45
2017-11-16T10:40:12.250Z,9.45
2017-11-16T10:41:39.586Z,9.45
2017-11-16T10:43:07.994Z,9.45
2017-11-16T10:44:34.362Z,9.46
2017-11-16T10:46:01.686Z,9.47
2017-11-16T10:47:30.113Z,9.48
2017-11-16T10:48:56.173Z,9.50
2017-11-16T10:50:24.508Z,9.51
2017-11-16T10:51:51.796Z,9.51
2017-11-16T10:53:18.179Z,9.53
2017-11-16T10:54:45.756Z,9.53
2017-11-16T10:56:13.861Z,9.52
2017-11-16T10:57:41.094Z,9.51
2017-11-16T10:59:07.364Z,9.50
2017-11-16T11:00:34.714Z,9.50
2017-11-16T11:02:03.000Z,9.49
2017-11-16T11:03:30.417Z,9.49
2017-11-16T11:04:57.651Z,9.50
2017-11-16T11:06:23.879Z,9.51
2017-11-16T11:07:51.297Z,9.51
2017-11-16T11:09:18.636Z,9.49
2017-11-16T11:10:45.764Z,9.49
2017-11-16T11:12:13.139Z,9.50
2017-11-16T11:13:40.402Z,9.50
2017-11-16T11:15:07.595Z,9.50
2017-11-16T11:16:34.749Z,9.50
2017-11-16T11:18:02.201Z,9.49
2017-11-16T11:19:29.552Z,9.49
2017-11-16T11:20:56.869Z,9.49
2017-11-16T11:22:24.126Z,9.49
2017-11-16T11:23:51.570Z,9.49
2017-11-16T11:25:19.765Z,9.49
2017-11-16T11:26:46.030Z,9.49
2017-11-16T11:28:14.415Z,9.48
2017-11-16T11:29:40.596Z,9.47
2017-11-16T11:31:07.828Z,9.48
2017-11-16T11:32:35.275Z,9.46
2017-11-16T11:34:03.771Z,9.46
2017-11-16T11:35:29.817Z,9.46
2017-11-16T11:36:58.173Z,9.46
2017-11-16T11:38:24.475Z,9.46
2017-11-16T11:39:52.048Z,9.47
2017-11-16T11:41:19.279Z,9.47
2017-11-16T11:42:46.743Z,9.48
2017-11-16T11:44:15.077Z,9.48
2017-11-16T11:45:42.353Z,9.50
2017-11-16T11:47:08.714Z,9.50
2017-11-16T11:48:36.072Z,9.50
2017-11-16T11:50:04.321Z,9.50
2017-11-16T11:51:30.580Z,9.51
2017-11-16T11:52:58.902Z,9.53
2017-11-16T11:54:25.257Z,9.54
2017-11-16T11:55:52.594Z,9.55
2017-11-16T11:57:20.036Z,9.58
2017-11-16T11:58:47.468Z,9.60
2017-11-16T12:00:14.823Z,9.62
2017-11-16T12:01:42.055Z,9.63
2017-11-16T12:03:09.475Z,9.64
2017-11-16T12:04:36.806Z,9.66
2017-11-16T12:06:04.249Z,9.67
2017-11-16T12:07:31.533Z,9.66
2017-11-16T12:08:59.022Z,9.68
2017-11-16T12:10:27.336Z,9.69
2017-11-16T12:11:53.471Z,9.70
2017-11-16T12:13:20.773Z,9.71
2017-11-16T12:14:48.061Z,9.71
2017-11-16T12:16:15.475Z,9.73
2017-11-16T12:17:43.885Z,9.75
2017-11-16T12:19:10.108Z,9.76
2017-11-16T12:20:37.607Z,9.78
2017-11-16T12:22:04.873Z,9.80
2017-11-16T12:23:32.236Z,9.82
2017-11-16T12:24:59.519Z,9.83
2017-11-16T12:26:27.845Z,9.83
2017-11-16T12:27:53.907Z,9.82
2017-11-16T12:29:22.353Z,9.81
2017-11-16T12:30:48.849Z,9.81
2017-11-16T12:32:15.934Z,9.81
2017-11-16T12:33:43.186Z,9.81
2017-11-16T12:35:10.421Z,9.82
2017-11-16T12:36:37.665Z,9.85
2017-11-16T12:38:04.946Z,9.88
2017-11-16T12:39:32.260Z,9.91
2017-11-16T12:40:59.617Z,9.95
2017-11-16T12:42:26.905Z,9.95
2017-11-16T12:43:54.157Z,9.97
2017-11-16T12:45:21.546Z,9.98
2017-11-16T12:46:49.981Z,9.98
2017-11-16T12:48:17.367Z,9.99
2017-11-16T12:49:43.679Z,9.99
2017-11-16T12:51:11.058Z,10.00
2017-11-16T12:52:38.531Z,10.00
2017-11-16T12:54:06.921Z,10.01
2017-11-16T12:55:33.196Z,9.99
2017-11-16T12:57:00.588Z,9.99
2017-11-16T12:58:28.853Z,10.00
2017-11-16T12:59:55.082Z,10.00
2017-11-16T13:01:22.463Z,10.02
2017-11-16T13:02:49.797Z,10.03
2017-11-16T13:04:18.215Z,10.03
2017-11-16T13:05:44.394Z,10.06
2017-11-16T13:07:12.819Z,10.07
2017-11-16T13:08:40.100Z,10.08
2017-11-16T13:10:06.519Z,10.08
2017-11-16T13:11:33.858Z,10.08
2017-11-16T13:13:01.124Z,10.07
2017-11-16T13:14:28.413Z,10.08
2017-11-16T13:15:55.828Z,10.06
2017-11-16T13:17:24.332Z,10.06
2017-11-16T13:18:50.572Z,10.05
2017-11-16T13:20:18.086Z,10.04
2017-11-16T13:21:45.484Z,10.05
2017-11-16T13:23:13.728Z,10.07
2017-11-16T13:24:39.997Z,10.05
2017-11-16T13:26:07.493Z,10.04
2017-11-16T13:27:34.725Z,10.04
2017-11-16T13:29:03.033Z,10.05
2017-11-16T13:30:29.133Z,10.05
2017-11-16T13:31:57.504Z,10.04
2017-11-16T13:33:23.735Z,10.03
2017-11-16T13:34:51.200Z,10.02
2017-11-16T13:36:18.530Z,10.00
2017-11-16T13:37:45.981Z,10.00
2017-11-16T13:39:13.435Z,9.99
2017-11-16T13:40:40.641Z,9.98
2017-11-16T13:42:07.956Z,9.98
2017-11-16T13:43:36.289Z,9.96
2017-11-16T13:45:03.618Z,9.94
2017-11-16T13:46:31.040Z,9.94
2017-11-16T13:47:57.125Z,9.93
2017-11-16T13:49:24.320Z,9.92
2017-11-16T13:50:51.708Z,9.93
2017-11-16T13:52:19.110Z,9.92
2017-11-16T13:53:46.516Z,9.92
2017-11-16T13:55:13.848Z,9.93
2017-11-16T13:56:41.109Z,9.94
2017-11-16T13:58:08.308Z,9.94
2017-11-16T13:59:35.692Z,9.95
2017-11-16T14:01:02.977Z,9.94
2017-11-16T14:02:30.330Z,9.95
2017-11-16T14:03:57.475Z,9.96
2017-11-16T14:05:24.658Z,9.96
2017-11-16T14:06:52.058Z,9.96
2017-11-16T14:08:19.453Z,9.94
2017-11-16T14:09:46.825Z,9.93
2017-11-16T14:11:15.186Z,9.93
2017-11-16T14:12:41.613Z,9.93
2017-11-16T14:14:09.007Z,9.93
2017-11-16T14:15:37.535Z,9.93
2017-11-16T14:17:03.759Z,9.94
2017-11-16T14:18:31.138Z,9.94
2017-11-16T14:19:58.600Z,9.96
2017-11-16T14:21:25.787Z,9.96
2017-11-16T14:22:53.137Z,9.96
2017-11-16T14:24:20.534Z,9.95
2017-11-16T14:25:47.917Z,9.95
2017-11-16T14:27:15.226Z,9.93
2017-11-16T14:28:42.549Z,9.93
2017-11-16T14:30:10.911Z,9.92
2017-11-16T14:31:38.296Z,9.91
2017-11-16T14:33:04.752Z,9.91
2017-11-16T14:34:32.076Z,9.89
2017-11-16T14:35:59.304Z,9.89
2017-11-16T14:37:26.700Z,9.89
2017-11-16T14:38:53.933Z,9.88
2017-11-16T14:40:22.313Z,9.87
2017-11-16T14:41:49.484Z,9.86
2017-11-16T14:43:15.850Z,9.85
2017-11-16T14:44:43.158Z,9.83
2017-11-16T14:46:10.559Z,9.82
2017-11-16T14:47:37.656Z,9.80
2017-11-16T14:49:06.000Z,9.80
2017-11-16T14:50:32.452Z,9.78
2017-11-16T14:51:59.610Z,9.76
2017-11-16T14:53:26.676Z,9.75
2017-11-16T14:54:53.924Z,9.73
2017-11-16T14:56:21.182Z,9.71
2017-11-16T14:57:48.424Z,9.71
2017-11-16T14:59:15.693Z,9.69
2017-11-16T15:00:42.973Z,9.64
2017-11-16T15:02:10.116Z,9.61
2017-11-16T15:03:37.347Z,9.61
2017-11-16T15:05:05.690Z,9.60
2017-11-16T15:06:32.080Z,9.59
2017-11-16T15:07:59.304Z,9.58
2017-11-16T15:09:26.588Z,9.58
2017-11-16T15:10:53.773Z,9.57
2017-11-16T15:12:21.118Z,9.56
2017-11-16T15:13:49.634Z,9.54
2017-11-16T15:15:15.819Z,9.53
2017-11-16T15:16:44.175Z,9.52
2017-11-16T15:18:11.672Z,9.47
2017-11-16T15:19:37.885Z,9.44
2017-11-16T15:21:05.248Z,9.42
2017-11-16T15:22:33.592Z,9.41
2017-11-16T15:24:00.869Z,9.39
2017-11-16T15:25:27.100Z,9.39
2017-11-16T15:26:55.181Z,9.38
2017-11-16T15:28:22.496Z,9.39
2017-11-16T15:29:48.940Z,9.39
2017-11-16T15:31:17.378Z,9.40
2017-11-16T15:32:44.593Z,9.39
2017-11-16T15:34:11.757Z,9.38
2017-11-16T15:35:38.160Z,9.37
2017-11-16T15:37:05.429Z,9.37
2017-11-16T15:38:32.875Z,9.37
2017-11-16T15:40:00.247Z,9.37
2017-11-16T15:41:27.685Z,9.36
2017-11-16T15:42:54.857Z,9.36
2017-11-16T15:44:23.221Z,9.36
2017-11-16T15:45:50.412Z,9.36
2017-11-16T15:47:16.700Z,9.35
2017-11-16T15:48:44.123Z,9.35
2017-11-16T15:50:11.512Z,9.36
2017-11-16T15:51:39.016Z,9.34
2017-11-16T15:53:07.317Z,9.32
2017-11-16T15:54:33.655Z,9.31
2017-11-16T15:56:00.862Z,9.31
2017-11-16T15:57:28.210Z,9.31
2017-11-16T15:58:55.601Z,9.30
2017-11-16T16:00:22.945Z,9.28
2017-11-16T16:01:50.179Z,9.27
2017-11-16T16:03:17.417Z,9.27
2017-11-16T16:04:44.881Z,9.26
2017-11-16T16:06:12.221Z,9.26
2017-11-16T16:07:40.560Z,9.25
2017-11-16T16:09:06.761Z,9.25
2017-11-16T16:10:34.074Z,9.23
2017-11-16T16:12:02.331Z,9.23
2017-11-16T16:13:29.742Z,9.24
2017-11-16T16:14:55.852Z,9.22
2017-11-16T16:16:24.165Z,9.22
2017-11-16T16:17:50.424Z,9.23
2017-11-16T16:19:17.771Z,9.23
2017-11-16T16:20:44.900Z,9.24
2017-11-16T16:22:13.213Z,9.25
2017-11-16T16:23:39.674Z,9.25
2017-11-16T16:25:06.838Z,9.25
2017-11-16T16:26:34.147Z,9.25
2017-11-16T16:28:02.452Z,9.24
2017-11-16T16:29:28.729Z,9.26
2017-11-16T16:30:55.973Z,9.24
2017-11-16T16:32:23.543Z,9.25
2017-11-16T16:33:51.077Z,9.24
2017-11-16T16:35:18.542Z,9.24
2017-11-16T16:36:46.821Z,9.25
2017-11-16T16:38:12.997Z,9.25
2017-11-16T16:39:40.516Z,9.25
2017-11-16T16:41:07.817Z,9.25
2017-11-16T16:42:35.143Z,9.25
2017-11-16T16:44:03.525Z,9.25
2017-11-16T16:45:30.876Z,9.25
2017-11-16T16:46:57.142Z,9.26
2017-11-16T16:48:24.396Z,9.28
2017-11-16T16:49:51.636Z,9.29
2017-11-16T16:51:19.098Z,9.30
2017-11-16T16:52:46.411Z,9.31
2017-11-16T16:54:14.732Z,9.32
2017-11-16T16:55:41.154Z,9.32
2017-11-16T16:57:09.405Z,9.32
2017-11-16T16:58:36.039Z,9.32
2017-11-16T17:00:03.302Z,9.32
2017-11-16T17:01:31.804Z,9.33
2017-11-16T17:02:58.040Z,9.32
2017-11-16T17:04:25.305Z,9.32
2017-11-16T17:05:53.452Z,9.32
2017-11-16T17:07:19.708Z,9.31
2017-11-16T17:08:46.963Z,9.31
2017-11-16T17:10:14.292Z,9.32
2017-11-16T17:11:41.626Z,9.30
2017-11-16T17:13:09.159Z,9.29
2017-11-16T17:14:36.383Z,9.29
2017-11-16T17:16:03.707Z,9.29
2017-11-16T17:17:31.052Z,9.29
2017-11-16T17:18:58.216Z,9.28
2017-11-16T17:20:25.451Z,9.27
2017-11-16T17:21:52.969Z,9.25
2017-11-16T17:23:20.497Z,9.24
2017-11-16T17:24:48.755Z,9.24
2017-11-16T17:26:15.135Z,9.24
2017-11-16T17:27:42.597Z,9.22
2017-11-16T17:29:09.967Z,9.22
2017-11-16T17:30:37.457Z,9.20
2017-11-16T17:32:05.738Z,9.17
2017-11-16T17:33:31.956Z,9.16
2017-11-16T17:34:59.338Z,9.14
2017-11-16T17:36:27.537Z,9.12
2017-11-16T17:37:53.704Z,9.10
2017-11-16T17:39:21.006Z,9.10
2017-11-16T17:40:49.335Z,9.06
2017-11-16T17:42:15.659Z,9.04
2017-11-16T17:43:42.927Z,9.01
2017-11-16T17:45:10.295Z,9.01
2017-11-16T17:46:37.626Z,8.99
2017-11-16T17:48:04.943Z,8.98
2017-11-16T17:49:32.337Z,8.97
2017-11-16T17:50:59.706Z,8.97
2017-11-16T17:52:26.930Z,8.98
2017-11-16T17:53:55.023Z,8.98
2017-11-16T17:55:21.340Z,8.98
2017-11-16T17:56:48.715Z,8.98
2017-11-16T17:58:15.995Z,8.99
2017-11-16T17:59:43.493Z,8.98
2017-11-16T18:01:10.760Z,8.98
2017-11-16T18:02:37.985Z,8.97
2017-11-16T18:04:06.317Z,8.96
2017-11-16T18:05:32.511Z,8.95
2017-11-16T18:06:59.668Z,8.95
2017-11-16T18:08:26.901Z,8.95
2017-11-16T18:09:54.091Z,8.95
2017-11-16T18:11:21.271Z,8.95
2017-11-16T18:12:49.681Z,8.96
2017-11-16T18:14:15.982Z,8.98
2017-11-16T18:15:43.167Z,8.98
2017-11-16T18:17:11.544Z,8.99
2017-11-16T18:18:37.907Z,8.98
2017-11-16T18:20:05.211Z,8.98
2017-11-16T18:21:32.488Z,8.96
2017-11-16T18:22:59.803Z,8.97
2017-11-16T18:24:27.124Z,8.97
2017-11-16T18:25:55.479Z,8.97
2017-11-16T18:27:22.797Z,8.99
2017-11-16T18:28:50.067Z,8.99
2017-11-16T18:30:16.385Z,8.99
2017-11-16T18:31:43.695Z,8.99
2017-11-16T18:33:11.037Z,9.00
2017-11-16T18:34:38.264Z,9.01
2017-11-16T18:36:05.647Z,9.02
2017-11-16T18:37:32.995Z,9.03
2017-11-16T18:39:00.134Z,9.04
2017-11-16T18:40:27.547Z,9.04
2017-11-16T18:41:55.672Z,9.05
2017-11-16T18:43:22.924Z,9.04
2017-11-16T18:44:49.237Z,9.05
2017-11-16T18:46:16.703Z,9.05
2017-11-16T18:47:45.062Z,9.06
2017-11-16T18:49:11.246Z,9.07
2017-11-16T18:50:38.497Z,9.08
2017-11-16T18:52:05.783Z,9.08
2017-11-16T18:53:33.131Z,9.08
2017-11-16T18:55:01.261Z,9.08
2017-11-16T18:56:27.612Z,9.07
2017-11-16T18:57:55.965Z,9.07
2017-11-16T18:59:22.176Z,9.07
2017-11-16T19:00:49.673Z,9.07
2017-11-16T19:02:16.940Z,9.08
2017-11-16T19:03:44.326Z,9.08
2017-11-16T19:05:11.689Z,9.08
2017-11-16T19:06:38.999Z,9.08
2017-11-16T19:08:06.318Z,9.08
2017-11-16T19:09:33.615Z,9.08
2017-11-16T19:11:00.963Z,9.07
2017-11-16T19:12:28.283Z,9.07
2017-11-16T19:13:55.631Z,9.06
2017-11-16T19:15:24.053Z,9.06
2017-11-16T19:16:50.222Z,9.06
2017-11-16T19:18:18.394Z,9.06
2017-11-16T19:19:44.840Z,9.06
2017-11-16T19:21:12.115Z,9.05